sensor_id;sensor_type;location;lat;lon;timestamp;temperature;humidity
480;DHT22;226;48.606;9.096;2023-03-14T00:02:02;9.70;87.90
480;DHT22;226;48.606;9.096;2023-03-14T00:04:30;9.70;85.70
480;DHT22;226;48.606;9.096;2023-03-14T00:06:58;9.60;85.80
480;DHT22;226;48.606;9.096;2023-03-14T00:09:26;9.50;87.00
480;DHT22;226;48.606;9.096;2023-03-14T00:12:04;9.60;87.70
480;DHT22;226;48.606;9.096;2023-03-14T00:14:33;9.60;86.10
480;DHT22;226;48.606;9.096;2023-03-14T00:17:01;9.60;85.20
480;DHT22;226;48.606;9.096;2023-03-14T00:19:29;9.50;86.30
480;DHT22;226;48.606;9.096;2023-03-14T00:21:57;9.60;87.30
480;DHT22;226;48.606;9.096;2023-03-14T00:24:25;9.60;86.40
480;DHT22;226;48.606;9.096;2023-03-14T00:26:53;9.60;86.60
480;DHT22;226;48.606;9.096;2023-03-14T00:29:23;9.70;85.90
480;DHT22;226;48.606;9.096;2023-03-14T00:31:50;9.70;83.40
480;DHT22;226;48.606;9.096;2023-03-14T00:34:20;9.80;83.70
480;DHT22;226;48.606;9.096;2023-03-14T00:36:48;9.80;83.40
480;DHT22;226;48.606;9.096;2023-03-14T00:39:16;9.80;82.40
480;DHT22;226;48.606;9.096;2023-03-14T00:41:44;9.80;81.20
480;DHT22;226;48.606;9.096;2023-03-14T00:44:12;9.80;81.30
480;DHT22;226;48.606;9.096;2023-03-14T00:46:42;9.80;80.50
480;DHT22;226;48.606;9.096;2023-03-14T00:49:10;9.90;81.70
480;DHT22;226;48.606;9.096;2023-03-14T00:51:38;9.90;82.30
480;DHT22;226;48.606;9.096;2023-03-14T00:54:06;9.90;83.00
480;DHT22;226;48.606;9.096;2023-03-14T00:56:34;9.90;82.80
480;DHT22;226;48.606;9.096;2023-03-14T00:59:02;9.90;79.80
480;DHT22;226;48.606;9.096;2023-03-14T01:01:30;10.00;78.20
480;DHT22;226;48.606;9.096;2023-03-14T01:03:59;9.90;79.40
480;DHT22;226;48.606;9.096;2023-03-14T01:06:28;9.90;79.40
480;DHT22;226;48.606;9.096;2023-03-14T01:08:57;9.90;76.70
480;DHT22;226;48.606;9.096;2023-03-14T01:11:27;9.80;72.20
480;DHT22;226;48.606;9.096;2023-03-14T01:13:55;9.70;76.30
480;DHT22;226;48.606;9.096;2023-03-14T01:16:25;9.70;78.00
480;DHT22;226;48.606;9.096;2023-03-14T01:18:59;9.70;77.10
480;DHT22;226;48.606;9.096;2023-03-14T01:21:29;9.70;75.20
480;DHT22;226;48.606;9.096;2023-03-14T01:23:59;9.60;75.10
480;DHT22;226;48.606;9.096;2023-03-14T01:26:30;9.60;77.30
480;DHT22;226;48.606;9.096;2023-03-14T01:29:00;9.60;76.80
480;DHT22;226;48.606;9.096;2023-03-14T01:31:28;9.60;77.30
480;DHT22;226;48.606;9.096;2023-03-14T01:33:56;9.70;78.00
480;DHT22;226;48.606;9.096;2023-03-14T01:36:25;9.70;79.30
480;DHT22;226;48.606;9.096;2023-03-14T01:38:57;9.70;79.00
480;DHT22;226;48.606;9.096;2023-03-14T01:41:25;9.60;74.80
480;DHT22;226;48.606;9.096;2023-03-14T01:43:53;9.60;75.70
480;DHT22;226;48.606;9.096;2023-03-14T01:46:30;9.60;73.70
480;DHT22;226;48.606;9.096;2023-03-14T01:49:03;9.60;76.10
480;DHT22;226;48.606;9.096;2023-03-14T01:51:39;9.60;77.50
480;DHT22;226;48.606;9.096;2023-03-14T01:54:12;9.70;76.20
480;DHT22;226;48.606;9.096;2023-03-14T01:56:46;9.60;74.30
480;DHT22;226;48.606;9.096;2023-03-14T01:59:15;9.60;76.60
480;DHT22;226;48.606;9.096;2023-03-14T02:01:44;9.60;75.30
480;DHT22;226;48.606;9.096;2023-03-14T02:04:15;9.60;73.80
480;DHT22;226;48.606;9.096;2023-03-14T02:06:50;9.50;73.60
480;DHT22;226;48.606;9.096;2023-03-14T02:09:19;9.50;74.80
480;DHT22;226;48.606;9.096;2023-03-14T02:11:49;9.50;73.50
480;DHT22;226;48.606;9.096;2023-03-14T02:14:30;9.40;74.90
480;DHT22;226;48.606;9.096;2023-03-14T02:16:58;9.40;77.70
480;DHT22;226;48.606;9.096;2023-03-14T02:19:39;9.50;77.00
480;DHT22;226;48.606;9.096;2023-03-14T02:22:15;9.40;75.40
480;DHT22;226;48.606;9.096;2023-03-14T02:24:49;9.50;74.90
480;DHT22;226;48.606;9.096;2023-03-14T02:27:21;9.50;73.80
480;DHT22;226;48.606;9.096;2023-03-14T02:29:51;9.40;75.30
480;DHT22;226;48.606;9.096;2023-03-14T02:32:21;9.40;75.60
480;DHT22;226;48.606;9.096;2023-03-14T02:34:53;9.40;74.10
480;DHT22;226;48.606;9.096;2023-03-14T02:37:24;9.40;75.50
480;DHT22;226;48.606;9.096;2023-03-14T02:39:53;9.40;74.20
480;DHT22;226;48.606;9.096;2023-03-14T02:42:23;9.40;75.20
480;DHT22;226;48.606;9.096;2023-03-14T02:44:53;9.40;75.00
480;DHT22;226;48.606;9.096;2023-03-14T02:47:27;9.40;76.20
480;DHT22;226;48.606;9.096;2023-03-14T02:50:05;9.40;74.20
480;DHT22;226;48.606;9.096;2023-03-14T02:52:34;9.40;74.60
480;DHT22;226;48.606;9.096;2023-03-14T02:55:02;9.40;74.20
480;DHT22;226;48.606;9.096;2023-03-14T02:57:32;9.40;73.10
480;DHT22;226;48.606;9.096;2023-03-14T03:00:00;9.30;73.30
480;DHT22;226;48.606;9.096;2023-03-14T03:02:29;9.30;72.50
480;DHT22;226;48.606;9.096;2023-03-14T03:04:57;9.30;72.70
480;DHT22;226;48.606;9.096;2023-03-14T03:07:26;9.20;72.20
480;DHT22;226;48.606;9.096;2023-03-14T03:09:54;9.20;73.90
480;DHT22;226;48.606;9.096;2023-03-14T03:12:22;9.20;75.70
480;DHT22;226;48.606;9.096;2023-03-14T03:14:51;9.20;70.80
480;DHT22;226;48.606;9.096;2023-03-14T03:17:19;9.20;73.50
480;DHT22;226;48.606;9.096;2023-03-14T03:19:47;9.10;67.60
480;DHT22;226;48.606;9.096;2023-03-14T03:22:15;9.10;67.70
480;DHT22;226;48.606;9.096;2023-03-14T03:24:43;9.10;68.50
480;DHT22;226;48.606;9.096;2023-03-14T03:27:12;9.00;69.20
480;DHT22;226;48.606;9.096;2023-03-14T03:29:39;9.10;69.40
480;DHT22;226;48.606;9.096;2023-03-14T03:32:09;9.10;63.90
480;DHT22;226;48.606;9.096;2023-03-14T03:34:37;9.00;66.00
480;DHT22;226;48.606;9.096;2023-03-14T03:37:05;9.00;65.60
480;DHT22;226;48.606;9.096;2023-03-14T03:39:33;9.00;64.80
480;DHT22;226;48.606;9.096;2023-03-14T03:42:01;9.00;67.60
480;DHT22;226;48.606;9.096;2023-03-14T03:44:29;9.00;66.10
480;DHT22;226;48.606;9.096;2023-03-14T03:46:57;9.00;63.80
480;DHT22;226;48.606;9.096;2023-03-14T03:49:29;8.90;67.40
480;DHT22;226;48.606;9.096;2023-03-14T03:51:58;8.90;64.30
480;DHT22;226;48.606;9.096;2023-03-14T03:54:26;8.90;66.80
480;DHT22;226;48.606;9.096;2023-03-14T03:56:55;8.80;68.60
480;DHT22;226;48.606;9.096;2023-03-14T03:59:23;8.80;65.40
480;DHT22;226;48.606;9.096;2023-03-14T04:01:52;8.80;64.30
480;DHT22;226;48.606;9.096;2023-03-14T04:04:20;8.80;65.90
480;DHT22;226;48.606;9.096;2023-03-14T04:06:49;8.80;65.00
480;DHT22;226;48.606;9.096;2023-03-14T04:09:17;8.80;59.00
480;DHT22;226;48.606;9.096;2023-03-14T04:11:45;8.80;56.90
480;DHT22;226;48.606;9.096;2023-03-14T04:14:13;8.70;60.90
480;DHT22;226;48.606;9.096;2023-03-14T04:16:41;8.80;62.70
480;DHT22;226;48.606;9.096;2023-03-14T04:19:10;8.70;61.90
480;DHT22;226;48.606;9.096;2023-03-14T04:21:38;8.70;59.20
480;DHT22;226;48.606;9.096;2023-03-14T04:24:08;8.70;62.00
480;DHT22;226;48.606;9.096;2023-03-14T04:26:36;8.70;60.10
480;DHT22;226;48.606;9.096;2023-03-14T04:29:04;8.70;58.60
480;DHT22;226;48.606;9.096;2023-03-14T04:31:32;8.70;59.70
480;DHT22;226;48.606;9.096;2023-03-14T04:34:01;8.70;59.50
480;DHT22;226;48.606;9.096;2023-03-14T04:36:29;8.70;58.00
480;DHT22;226;48.606;9.096;2023-03-14T04:38:57;8.70;57.80
480;DHT22;226;48.606;9.096;2023-03-14T04:41:26;8.70;57.50
480;DHT22;226;48.606;9.096;2023-03-14T04:43:54;8.70;58.40
480;DHT22;226;48.606;9.096;2023-03-14T04:46:22;8.60;59.00
480;DHT22;226;48.606;9.096;2023-03-14T04:48:51;8.60;57.90
480;DHT22;226;48.606;9.096;2023-03-14T04:51:19;8.60;60.90
480;DHT22;226;48.606;9.096;2023-03-14T04:53:50;8.60;58.90
480;DHT22;226;48.606;9.096;2023-03-14T04:56:18;8.60;57.00
480;DHT22;226;48.606;9.096;2023-03-14T04:58:47;8.60;55.00
480;DHT22;226;48.606;9.096;2023-03-14T05:01:15;8.60;55.30
480;DHT22;226;48.606;9.096;2023-03-14T05:03:44;8.50;54.40
480;DHT22;226;48.606;9.096;2023-03-14T05:06:12;8.50;51.30
480;DHT22;226;48.606;9.096;2023-03-14T05:08:40;8.60;53.40
480;DHT22;226;48.606;9.096;2023-03-14T05:11:10;8.50;57.10
480;DHT22;226;48.606;9.096;2023-03-14T05:13:38;8.40;54.00
480;DHT22;226;48.606;9.096;2023-03-14T05:16:10;8.50;53.40
480;DHT22;226;48.606;9.096;2023-03-14T05:18:38;8.50;53.00
480;DHT22;226;48.606;9.096;2023-03-14T05:21:06;8.50;54.80
480;DHT22;226;48.606;9.096;2023-03-14T05:23:34;8.50;52.70
480;DHT22;226;48.606;9.096;2023-03-14T05:26:03;8.50;51.50
480;DHT22;226;48.606;9.096;2023-03-14T05:28:31;8.50;53.50
480;DHT22;226;48.606;9.096;2023-03-14T05:30:59;8.50;52.00
480;DHT22;226;48.606;9.096;2023-03-14T05:33:28;8.50;48.50
480;DHT22;226;48.606;9.096;2023-03-14T05:35:56;8.50;52.20
480;DHT22;226;48.606;9.096;2023-03-14T05:38:25;8.50;48.10
480;DHT22;226;48.606;9.096;2023-03-14T05:40:53;8.60;48.40
480;DHT22;226;48.606;9.096;2023-03-14T05:43:21;8.50;49.90
480;DHT22;226;48.606;9.096;2023-03-14T05:45:49;8.60;48.60
480;DHT22;226;48.606;9.096;2023-03-14T05:48:17;8.60;50.90
480;DHT22;226;48.606;9.096;2023-03-14T05:50:47;8.50;50.40
480;DHT22;226;48.606;9.096;2023-03-14T05:53:15;8.50;49.10
480;DHT22;226;48.606;9.096;2023-03-14T05:55:43;8.50;48.90
480;DHT22;226;48.606;9.096;2023-03-14T05:58:11;8.60;46.30
480;DHT22;226;48.606;9.096;2023-03-14T06:00:39;8.50;49.60
480;DHT22;226;48.606;9.096;2023-03-14T06:03:07;8.60;50.60
480;DHT22;226;48.606;9.096;2023-03-14T06:05:35;8.60;49.00
480;DHT22;226;48.606;9.096;2023-03-14T06:08:05;8.60;46.40
480;DHT22;226;48.606;9.096;2023-03-14T06:10:34;8.60;45.40
480;DHT22;226;48.606;9.096;2023-03-14T06:13:03;8.50;46.70
480;DHT22;226;48.606;9.096;2023-03-14T06:15:31;8.50;49.50
480;DHT22;226;48.606;9.096;2023-03-14T06:18:00;8.60;46.40
480;DHT22;226;48.606;9.096;2023-03-14T06:20:28;8.60;45.30
480;DHT22;226;48.606;9.096;2023-03-14T06:22:56;8.50;49.20
480;DHT22;226;48.606;9.096;2023-03-14T06:25:26;8.60;46.00
480;DHT22;226;48.606;9.096;2023-03-14T06:27:54;8.60;45.60
480;DHT22;226;48.606;9.096;2023-03-14T06:30:22;8.60;45.00
480;DHT22;226;48.606;9.096;2023-03-14T06:32:50;8.60;45.40
480;DHT22;226;48.606;9.096;2023-03-14T06:35:18;8.60;47.00
480;DHT22;226;48.606;9.096;2023-03-14T06:37:47;8.50;50.30
480;DHT22;226;48.606;9.096;2023-03-14T06:40:15;8.50;50.40
480;DHT22;226;48.606;9.096;2023-03-14T06:42:47;8.50;48.50
480;DHT22;226;48.606;9.096;2023-03-14T06:45:15;8.50;48.50
480;DHT22;226;48.606;9.096;2023-03-14T06:47:43;8.60;48.60
480;DHT22;226;48.606;9.096;2023-03-14T06:50:11;8.60;50.00
480;DHT22;226;48.606;9.096;2023-03-14T06:52:39;8.60;46.20
480;DHT22;226;48.606;9.096;2023-03-14T06:55:13;8.60;47.40
480;DHT22;226;48.606;9.096;2023-03-14T06:57:41;8.60;46.50
480;DHT22;226;48.606;9.096;2023-03-14T07:00:13;8.70;44.20
480;DHT22;226;48.606;9.096;2023-03-14T07:02:42;8.80;46.80
480;DHT22;226;48.606;9.096;2023-03-14T07:05:10;8.90;46.70
480;DHT22;226;48.606;9.096;2023-03-14T07:07:38;8.90;47.10
480;DHT22;226;48.606;9.096;2023-03-14T07:10:07;9.00;46.80
480;DHT22;226;48.606;9.096;2023-03-14T07:12:36;9.10;46.80
480;DHT22;226;48.606;9.096;2023-03-14T07:15:05;9.20;43.20
480;DHT22;226;48.606;9.096;2023-03-14T07:17:47;9.20;42.50
480;DHT22;226;48.606;9.096;2023-03-14T07:20:16;9.30;43.20
480;DHT22;226;48.606;9.096;2023-03-14T07:22:47;9.20;41.00
480;DHT22;226;48.606;9.096;2023-03-14T07:25:15;9.20;41.40
480;DHT22;226;48.606;9.096;2023-03-14T07:27:45;9.20;42.70
480;DHT22;226;48.606;9.096;2023-03-14T07:30:14;9.30;39.10
480;DHT22;226;48.606;9.096;2023-03-14T07:32:42;9.30;43.10
480;DHT22;226;48.606;9.096;2023-03-14T07:35:12;9.40;43.20
480;DHT22;226;48.606;9.096;2023-03-14T07:37:40;9.60;44.30
480;DHT22;226;48.606;9.096;2023-03-14T07:40:09;9.80;44.00
480;DHT22;226;48.606;9.096;2023-03-14T07:42:40;9.90;36.50
480;DHT22;226;48.606;9.096;2023-03-14T07:45:08;10.00;34.30
480;DHT22;226;48.606;9.096;2023-03-14T07:47:38;10.00;35.90
480;DHT22;226;48.606;9.096;2023-03-14T07:50:07;10.10;33.60
480;DHT22;226;48.606;9.096;2023-03-14T07:52:37;10.20;34.20
480;DHT22;226;48.606;9.096;2023-03-14T07:55:06;10.30;34.70
480;DHT22;226;48.606;9.096;2023-03-14T07:57:34;10.40;32.30
480;DHT22;226;48.606;9.096;2023-03-14T08:00:02;10.60;31.50
480;DHT22;226;48.606;9.096;2023-03-14T08:02:32;10.70;33.50
480;DHT22;226;48.606;9.096;2023-03-14T08:05:00;10.80;29.10
480;DHT22;226;48.606;9.096;2023-03-14T08:07:28;11.00;33.70
480;DHT22;226;48.606;9.096;2023-03-14T08:09:58;11.20;27.80
480;DHT22;226;48.606;9.096;2023-03-14T08:12:26;11.20;30.20
480;DHT22;226;48.606;9.096;2023-03-14T08:14:54;11.20;33.40
480;DHT22;226;48.606;9.096;2023-03-14T08:17:22;11.30;31.20
480;DHT22;226;48.606;9.096;2023-03-14T08:19:53;11.40;29.30
480;DHT22;226;48.606;9.096;2023-03-14T08:22:21;11.40;26.80
480;DHT22;226;48.606;9.096;2023-03-14T08:24:49;11.50;26.50
480;DHT22;226;48.606;9.096;2023-03-14T08:27:18;11.50;28.30
480;DHT22;226;48.606;9.096;2023-03-14T08:29:46;11.40;26.60
480;DHT22;226;48.606;9.096;2023-03-14T08:32:14;11.20;24.80
480;DHT22;226;48.606;9.096;2023-03-14T08:34:43;11.30;26.20
480;DHT22;226;48.606;9.096;2023-03-14T08:37:11;11.40;22.30
480;DHT22;226;48.606;9.096;2023-03-14T08:39:52;11.40;21.90
480;DHT22;226;48.606;9.096;2023-03-14T08:42:22;11.50;22.40
480;DHT22;226;48.606;9.096;2023-03-14T08:44:51;11.60;21.20
480;DHT22;226;48.606;9.096;2023-03-14T08:47:19;11.50;20.80
480;DHT22;226;48.606;9.096;2023-03-14T08:49:47;11.50;20.50
480;DHT22;226;48.606;9.096;2023-03-14T08:52:15;11.40;21.00
480;DHT22;226;48.606;9.096;2023-03-14T08:54:44;11.30;21.00
480;DHT22;226;48.606;9.096;2023-03-14T08:57:12;11.30;22.40
480;DHT22;226;48.606;9.096;2023-03-14T08:59:42;11.20;23.00
480;DHT22;226;48.606;9.096;2023-03-14T09:02:11;11.00;22.80
480;DHT22;226;48.606;9.096;2023-03-14T09:04:39;10.80;24.20
480;DHT22;226;48.606;9.096;2023-03-14T09:07:07;10.70;26.20
480;DHT22;226;48.606;9.096;2023-03-14T09:09:36;10.60;25.30
480;DHT22;226;48.606;9.096;2023-03-14T09:12:45;10.60;25.70
480;DHT22;226;48.606;9.096;2023-03-14T09:16:09;10.50;26.40
480;DHT22;226;48.606;9.096;2023-03-14T09:23:53;10.90;26.20
480;DHT22;226;48.606;9.096;2023-03-14T09:26:21;11.00;25.20
480;DHT22;226;48.606;9.096;2023-03-14T09:28:49;11.00;24.30
480;DHT22;226;48.606;9.096;2023-03-14T09:31:19;11.10;22.50
480;DHT22;226;48.606;9.096;2023-03-14T09:33:47;11.10;23.60
480;DHT22;226;48.606;9.096;2023-03-14T09:36:15;11.10;21.60
480;DHT22;226;48.606;9.096;2023-03-14T09:38:43;11.10;22.00
480;DHT22;226;48.606;9.096;2023-03-14T09:41:15;10.70;21.30
480;DHT22;226;48.606;9.096;2023-03-14T09:43:46;11.00;22.20
480;DHT22;226;48.606;9.096;2023-03-14T09:46:19;11.10;22.60
480;DHT22;226;48.606;9.096;2023-03-14T09:48:48;11.20;21.50
480;DHT22;226;48.606;9.096;2023-03-14T09:51:18;11.30;21.60
480;DHT22;226;48.606;9.096;2023-03-14T09:53:49;11.20;21.70
480;DHT22;226;48.606;9.096;2023-03-14T09:56:20;11.40;23.60
480;DHT22;226;48.606;9.096;2023-03-14T09:58:52;11.30;23.80
480;DHT22;226;48.606;9.096;2023-03-14T10:01:25;11.30;22.10
480;DHT22;226;48.606;9.096;2023-03-14T10:04:00;11.20;21.90
480;DHT22;226;48.606;9.096;2023-03-14T10:06:30;11.20;22.90
480;DHT22;226;48.606;9.096;2023-03-14T10:08:58;11.20;23.10
480;DHT22;226;48.606;9.096;2023-03-14T10:11:26;11.40;23.20
480;DHT22;226;48.606;9.096;2023-03-14T10:14:06;11.60;21.90
480;DHT22;226;48.606;9.096;2023-03-14T10:16:40;11.80;22.00
480;DHT22;226;48.606;9.096;2023-03-14T10:19:11;11.90;20.80
480;DHT22;226;48.606;9.096;2023-03-14T10:21:40;12.10;20.70
480;DHT22;226;48.606;9.096;2023-03-14T10:24:26;12.20;20.00
480;DHT22;226;48.606;9.096;2023-03-14T10:26:57;12.40;20.20
480;DHT22;226;48.606;9.096;2023-03-14T10:29:28;12.30;19.80
480;DHT22;226;48.606;9.096;2023-03-14T10:32:01;12.00;20.20
480;DHT22;226;48.606;9.096;2023-03-14T10:34:31;12.00;21.10
480;DHT22;226;48.606;9.096;2023-03-14T10:37:06;11.90;19.80
480;DHT22;226;48.606;9.096;2023-03-14T10:39:41;11.80;20.00
480;DHT22;226;48.606;9.096;2023-03-14T10:42:18;11.80;20.70
480;DHT22;226;48.606;9.096;2023-03-14T10:44:53;11.80;21.40
480;DHT22;226;48.606;9.096;2023-03-14T10:47:26;11.90;19.80
480;DHT22;226;48.606;9.096;2023-03-14T10:49:57;11.90;20.70
480;DHT22;226;48.606;9.096;2023-03-14T10:52:47;11.80;20.30
480;DHT22;226;48.606;9.096;2023-03-14T10:55:28;11.60;20.40
480;DHT22;226;48.606;9.096;2023-03-14T10:58:20;11.70;22.10
480;DHT22;226;48.606;9.096;2023-03-14T11:00:53;11.60;21.50
480;DHT22;226;48.606;9.096;2023-03-14T11:03:26;11.60;21.50
480;DHT22;226;48.606;9.096;2023-03-14T11:05:59;11.70;22.00
480;DHT22;226;48.606;9.096;2023-03-14T11:08:33;11.60;22.40
480;DHT22;226;48.606;9.096;2023-03-14T11:11:14;11.50;25.70
480;DHT22;226;48.606;9.096;2023-03-14T11:13:54;11.40;24.30
480;DHT22;226;48.606;9.096;2023-03-14T11:16:32;11.30;27.20
480;DHT22;226;48.606;9.096;2023-03-14T11:19:35;11.00;26.70
480;DHT22;226;48.606;9.096;2023-03-14T11:22:13;11.00;26.80
480;DHT22;226;48.606;9.096;2023-03-14T11:24:53;11.10;28.50
480;DHT22;226;48.606;9.096;2023-03-14T11:27:30;11.10;27.60
480;DHT22;226;48.606;9.096;2023-03-14T11:30:05;11.20;29.70
480;DHT22;226;48.606;9.096;2023-03-14T11:32:44;11.20;27.60
480;DHT22;226;48.606;9.096;2023-03-14T11:35:19;10.90;30.90
480;DHT22;226;48.606;9.096;2023-03-14T11:37:54;10.90;32.90
480;DHT22;226;48.606;9.096;2023-03-14T11:40:25;10.80;33.00
480;DHT22;226;48.606;9.096;2023-03-14T11:42:59;10.70;31.80
480;DHT22;226;48.606;9.096;2023-03-14T11:45:32;10.60;33.20
480;DHT22;226;48.606;9.096;2023-03-14T11:48:17;10.70;31.80
480;DHT22;226;48.606;9.096;2023-03-14T11:50:49;10.50;34.80
480;DHT22;226;48.606;9.096;2023-03-14T11:53:22;10.60;36.50
480;DHT22;226;48.606;9.096;2023-03-14T11:55:53;10.80;36.10
480;DHT22;226;48.606;9.096;2023-03-14T11:58:25;10.80;31.70
480;DHT22;226;48.606;9.096;2023-03-14T12:00:55;10.70;33.60
480;DHT22;226;48.606;9.096;2023-03-14T12:03:31;10.40;34.60
480;DHT22;226;48.606;9.096;2023-03-14T12:06:13;10.30;37.50
480;DHT22;226;48.606;9.096;2023-03-14T12:08:49;10.10;39.50
480;DHT22;226;48.606;9.096;2023-03-14T12:11:24;10.20;43.50
480;DHT22;226;48.606;9.096;2023-03-14T12:13:53;9.90;46.20
480;DHT22;226;48.606;9.096;2023-03-14T12:16:39;9.80;50.20
480;DHT22;226;48.606;9.096;2023-03-14T12:19:29;9.70;54.50
480;DHT22;226;48.606;9.096;2023-03-14T12:22:05;9.60;57.50
480;DHT22;226;48.606;9.096;2023-03-14T12:24:36;9.70;55.00
480;DHT22;226;48.606;9.096;2023-03-14T12:27:08;9.80;50.00
480;DHT22;226;48.606;9.096;2023-03-14T12:30:05;9.80;45.50
480;DHT22;226;48.606;9.096;2023-03-14T12:32:43;9.90;41.80
480;DHT22;226;48.606;9.096;2023-03-14T12:35:34;9.90;35.40
480;DHT22;226;48.606;9.096;2023-03-14T12:38:06;9.90;38.20
480;DHT22;226;48.606;9.096;2023-03-14T12:40:40;9.80;34.00
480;DHT22;226;48.606;9.096;2023-03-14T12:43:25;9.90;37.20
480;DHT22;226;48.606;9.096;2023-03-14T12:46:19;9.80;26.00
480;DHT22;226;48.606;9.096;2023-03-14T12:48:48;9.70;23.60
480;DHT22;226;48.606;9.096;2023-03-14T12:51:19;9.70;15.20
480;DHT22;226;48.606;9.096;2023-03-14T12:54:19;9.80;16.80
480;DHT22;226;48.606;9.096;2023-03-14T12:57:04;9.80;14.70
480;DHT22;226;48.606;9.096;2023-03-14T12:59:35;9.80;14.70
480;DHT22;226;48.606;9.096;2023-03-14T13:02:24;9.70;16.60
480;DHT22;226;48.606;9.096;2023-03-14T13:05:00;9.50;12.40
480;DHT22;226;48.606;9.096;2023-03-14T13:07:34;9.40;12.70
480;DHT22;226;48.606;9.096;2023-03-14T13:10:16;9.40;12.50
480;DHT22;226;48.606;9.096;2023-03-14T13:12:50;9.40;12.50
480;DHT22;226;48.606;9.096;2023-03-14T13:15:22;9.50;12.40
480;DHT22;226;48.606;9.096;2023-03-14T13:17:53;9.60;12.60
480;DHT22;226;48.606;9.096;2023-03-14T13:20:28;9.50;11.70
480;DHT22;226;48.606;9.096;2023-03-14T13:22:56;9.60;11.90
480;DHT22;226;48.606;9.096;2023-03-14T13:25:29;9.50;12.70
480;DHT22;226;48.606;9.096;2023-03-14T13:27:58;9.50;11.80
480;DHT22;226;48.606;9.096;2023-03-14T13:30:28;9.20;11.70
480;DHT22;226;48.606;9.096;2023-03-14T13:32:56;9.10;12.30
480;DHT22;226;48.606;9.096;2023-03-14T13:35:27;8.90;12.00
480;DHT22;226;48.606;9.096;2023-03-14T13:37:58;8.90;13.30
480;DHT22;226;48.606;9.096;2023-03-14T13:40:44;9.00;12.50
480;DHT22;226;48.606;9.096;2023-03-14T13:43:16;8.90;12.10
480;DHT22;226;48.606;9.096;2023-03-14T13:45:51;8.70;12.20
480;DHT22;226;48.606;9.096;2023-03-14T13:48:20;8.70;13.60
480;DHT22;226;48.606;9.096;2023-03-14T13:50:54;8.70;15.90
480;DHT22;226;48.606;9.096;2023-03-14T13:53:23;8.60;17.00
480;DHT22;226;48.606;9.096;2023-03-14T13:58:27;8.40;19.40
480;DHT22;226;48.606;9.096;2023-03-14T14:01:01;8.30;22.00
480;DHT22;226;48.606;9.096;2023-03-14T14:03:32;8.50;21.00
480;DHT22;226;48.606;9.096;2023-03-14T14:06:00;8.40;23.60
480;DHT22;226;48.606;9.096;2023-03-14T14:08:29;8.50;23.00
480;DHT22;226;48.606;9.096;2023-03-14T14:11:02;8.50;21.90
480;DHT22;226;48.606;9.096;2023-03-14T14:13:34;8.80;24.50
480;DHT22;226;48.606;9.096;2023-03-14T14:16:03;8.50;23.60
480;DHT22;226;48.606;9.096;2023-03-14T14:18:33;8.50;21.70
480;DHT22;226;48.606;9.096;2023-03-14T14:21:02;8.40;22.80
480;DHT22;226;48.606;9.096;2023-03-14T14:23:31;8.40;20.90
480;DHT22;226;48.606;9.096;2023-03-14T14:26:00;8.50;21.00
480;DHT22;226;48.606;9.096;2023-03-14T14:28:30;8.60;22.80
480;DHT22;226;48.606;9.096;2023-03-14T14:31:17;8.50;20.10
480;DHT22;226;48.606;9.096;2023-03-14T14:33:53;8.40;21.60
480;DHT22;226;48.606;9.096;2023-03-14T14:36:24;8.30;19.90
480;DHT22;226;48.606;9.096;2023-03-14T14:38:56;8.30;20.70
480;DHT22;226;48.606;9.096;2023-03-14T14:41:31;8.40;20.20
480;DHT22;226;48.606;9.096;2023-03-14T14:44:00;8.40;19.20
480;DHT22;226;48.606;9.096;2023-03-14T14:46:32;8.30;19.40
480;DHT22;226;48.606;9.096;2023-03-14T14:49:08;8.30;18.70
480;DHT22;226;48.606;9.096;2023-03-14T14:51:41;8.40;19.00
480;DHT22;226;48.606;9.096;2023-03-14T14:54:13;8.40;18.40
480;DHT22;226;48.606;9.096;2023-03-14T14:56:48;8.40;19.10
480;DHT22;226;48.606;9.096;2023-03-14T14:59:25;8.60;18.10
480;DHT22;226;48.606;9.096;2023-03-14T15:01:56;8.80;17.20
480;DHT22;226;48.606;9.096;2023-03-14T15:04:26;8.90;17.30
480;DHT22;226;48.606;9.096;2023-03-14T15:06:54;8.80;16.00
480;DHT22;226;48.606;9.096;2023-03-14T15:09:22;8.90;15.00
480;DHT22;226;48.606;9.096;2023-03-14T15:11:52;9.00;16.40
480;DHT22;226;48.606;9.096;2023-03-14T15:14:20;9.20;15.30
480;DHT22;226;48.606;9.096;2023-03-14T15:16:48;9.20;16.10
480;DHT22;226;48.606;9.096;2023-03-14T15:19:20;9.10;16.10
480;DHT22;226;48.606;9.096;2023-03-14T15:21:52;9.30;16.10
480;DHT22;226;48.606;9.096;2023-03-14T15:24:20;9.90;18.10
480;DHT22;226;48.606;9.096;2023-03-14T15:26:48;10.50;11.70
480;DHT22;226;48.606;9.096;2023-03-14T15:29:18;10.40;11.40
480;DHT22;226;48.606;9.096;2023-03-14T15:31:46;10.70;15.70
480;DHT22;226;48.606;9.096;2023-03-14T15:34:14;9.80;13.00
480;DHT22;226;48.606;9.096;2023-03-14T15:36:43;9.20;12.30
480;DHT22;226;48.606;9.096;2023-03-14T15:39:11;9.60;15.30
480;DHT22;226;48.606;9.096;2023-03-14T15:41:39;9.90;12.80
480;DHT22;226;48.606;9.096;2023-03-14T15:44:07;9.70;14.10
480;DHT22;226;48.606;9.096;2023-03-14T15:46:37;9.20;13.80
480;DHT22;226;48.606;9.096;2023-03-14T15:49:05;9.10;13.80
480;DHT22;226;48.606;9.096;2023-03-14T15:51:33;8.80;13.90
480;DHT22;226;48.606;9.096;2023-03-14T15:54:01;8.70;14.40
480;DHT22;226;48.606;9.096;2023-03-14T15:56:29;8.70;13.90
480;DHT22;226;48.606;9.096;2023-03-14T15:58:58;8.70;14.10
480;DHT22;226;48.606;9.096;2023-03-14T16:01:26;8.60;12.80
480;DHT22;226;48.606;9.096;2023-03-14T16:03:56;8.60;13.30
480;DHT22;226;48.606;9.096;2023-03-14T16:06:24;8.60;13.30
480;DHT22;226;48.606;9.096;2023-03-14T16:08:53;8.60;13.30
480;DHT22;226;48.606;9.096;2023-03-14T16:11:21;8.50;13.30
480;DHT22;226;48.606;9.096;2023-03-14T16:13:50;8.40;13.10
480;DHT22;226;48.606;9.096;2023-03-14T16:16:18;8.40;15.00
480;DHT22;226;48.606;9.096;2023-03-14T16:18:47;8.30;14.60
480;DHT22;226;48.606;9.096;2023-03-14T16:21:18;8.40;16.50
480;DHT22;226;48.606;9.096;2023-03-14T16:23:47;8.40;15.60
480;DHT22;226;48.606;9.096;2023-03-14T16:26:17;8.50;16.70
480;DHT22;226;48.606;9.096;2023-03-14T16:28:46;8.60;16.40
480;DHT22;226;48.606;9.096;2023-03-14T16:31:16;8.60;17.90
480;DHT22;226;48.606;9.096;2023-03-14T16:33:44;8.70;17.70
480;DHT22;226;48.606;9.096;2023-03-14T16:36:13;8.50;17.40
480;DHT22;226;48.606;9.096;2023-03-14T16:38:44;8.40;18.80
480;DHT22;226;48.606;9.096;2023-03-14T16:41:14;8.20;18.90
480;DHT22;226;48.606;9.096;2023-03-14T16:43:43;8.20;20.40
480;DHT22;226;48.606;9.096;2023-03-14T16:46:13;8.10;21.40
480;DHT22;226;48.606;9.096;2023-03-14T16:48:43;8.10;20.90
480;DHT22;226;48.606;9.096;2023-03-14T16:51:11;8.10;21.60
480;DHT22;226;48.606;9.096;2023-03-14T16:53:39;8.10;21.70
480;DHT22;226;48.606;9.096;2023-03-14T16:56:09;8.00;21.80
480;DHT22;226;48.606;9.096;2023-03-14T16:58:38;7.90;32.40
480;DHT22;226;48.606;9.096;2023-03-14T17:01:07;7.90;37.20
480;DHT22;226;48.606;9.096;2023-03-14T17:03:38;7.70;25.50
480;DHT22;226;48.606;9.096;2023-03-14T17:06:09;7.40;41.30
480;DHT22;226;48.606;9.096;2023-03-14T17:08:37;7.50;44.80
480;DHT22;226;48.606;9.096;2023-03-14T17:11:05;7.60;37.90
480;DHT22;226;48.606;9.096;2023-03-14T17:13:36;7.10;43.30
480;DHT22;226;48.606;9.096;2023-03-14T17:16:04;7.10;48.60
480;DHT22;226;48.606;9.096;2023-03-14T17:18:34;7.00;49.80
480;DHT22;226;48.606;9.096;2023-03-14T17:21:03;7.00;52.10